Pisgah, South Carolina
Current Conditions -  °F | °C
As of 9:58 AM on Thursday 23 Oct 2014 (Local Time) from KSSC Reporting Station
Clear Clear  
Wind Chill: 54°   Ceiling: Unl
Heat Index: 54°   Visibility: 10mi
Dew Point: 42°   Wind: 8mph
Humidity: 64%   Direction: 340°NNW
Pressure: 30.09"   Gusts: NA
Location:  34.1106°N, 80.4967°W
Report Text: KSSC 231358Z AUTO 34007KT 300V360 10SM CLR 12/05 A3009 RMK AO2 DZB1315E1330 SLP191 P0000 T01210054 $
Loading
Personal Weather Stations






























Interactive Weather Map
Tropical Storm Tracking
New forecast layout! Learn more

10-Day Weather Forecast

Advertisements
Track Severe Weather on mobile